sensor_id;sensor_type;location;lat;lon;timestamp;temperature;humidity
70246;SHT30;57637;49.272;8.590;2023-03-23T00:01:17;14.24;62.96
70246;SHT30;57637;49.272;8.590;2023-03-23T00:03:45;14.25;62.95
70246;SHT30;57637;49.272;8.590;2023-03-23T00:06:12;14.22;63.03
70246;SHT30;57637;49.272;8.590;2023-03-23T00:08:42;14.21;63.17
70246;SHT30;57637;49.272;8.590;2023-03-23T00:11:13;14.21;63.19
70246;SHT30;57637;49.272;8.590;2023-03-23T00:13:43;14.17;63.12
70246;SHT30;57637;49.272;8.590;2023-03-23T00:16:10;14.15;63.26
70246;SHT30;57637;49.272;8.590;2023-03-23T00:18:53;14.15;63.26
70246;SHT30;57637;49.272;8.590;2023-03-23T00:21:21;14.14;63.26
70246;SHT30;57637;49.272;8.590;2023-03-23T00:23:58;14.13;63.34
70246;SHT30;57637;49.272;8.590;2023-03-23T00:26:31;14.13;63.41
70246;SHT30;57637;49.272;8.590;2023-03-23T00:28:58;14.10;63.40
70246;SHT30;57637;49.272;8.590;2023-03-23T00:31:25;14.08;63.37
70246;SHT30;57637;49.272;8.590;2023-03-23T00:33:56;14.05;63.23
70246;SHT30;57637;49.272;8.590;2023-03-23T00:36:23;14.05;63.20
70246;SHT30;57637;49.272;8.590;2023-03-23T00:38:51;14.05;63.09
70246;SHT30;57637;49.272;8.590;2023-03-23T00:41:16;14.01;62.92
70246;SHT30;57637;49.272;8.590;2023-03-23T00:43:41;14.03;62.95
70246;SHT30;57637;49.272;8.590;2023-03-23T00:46:07;14.03;62.64
70246;SHT30;57637;49.272;8.590;2023-03-23T00:48:35;14.04;62.58
70246;SHT30;57637;49.272;8.590;2023-03-23T00:51:02;14.05;62.50
70246;SHT30;57637;49.272;8.590;2023-03-23T00:53:31;14.10;62.21
70246;SHT30;57637;49.272;8.590;2023-03-23T00:55:57;14.13;61.98
70246;SHT30;57637;49.272;8.590;2023-03-23T00:58:23;14.18;61.97
70246;SHT30;57637;49.272;8.590;2023-03-23T01:00:48;14.15;62.05
70246;SHT30;57637;49.272;8.590;2023-03-23T01:03:13;14.15;62.13
70246;SHT30;57637;49.272;8.590;2023-03-23T01:05:43;14.15;62.20
70246;SHT30;57637;49.272;8.590;2023-03-23T01:08:12;14.10;62.21
70246;SHT30;57637;49.272;8.590;2023-03-23T01:10:38;14.08;62.52
70246;SHT30;57637;49.272;8.590;2023-03-23T01:13:05;14.07;62.73
70246;SHT30;57637;49.272;8.590;2023-03-23T01:15:31;13.97;62.94
70246;SHT30;57637;49.272;8.590;2023-03-23T01:17:57;13.87;63.27
70246;SHT30;57637;49.272;8.590;2023-03-23T01:20:23;13.81;63.44
70246;SHT30;57637;49.272;8.590;2023-03-23T01:22:51;13.77;63.51
70246;SHT30;57637;49.272;8.590;2023-03-23T01:25:18;13.75;63.53
70246;SHT30;57637;49.272;8.590;2023-03-23T01:27:43;13.69;63.63
70246;SHT30;57637;49.272;8.590;2023-03-23T01:30:10;13.66;63.72
70246;SHT30;57637;49.272;8.590;2023-03-23T01:32:37;13.66;63.82
70246;SHT30;57637;49.272;8.590;2023-03-23T01:35:02;13.63;63.84
70246;SHT30;57637;49.272;8.590;2023-03-23T01:37:28;13.63;63.98
70246;SHT30;57637;49.272;8.590;2023-03-23T01:39:54;13.59;64.02
70246;SHT30;57637;49.272;8.590;2023-03-23T01:42:21;13.59;63.96
70246;SHT30;57637;49.272;8.590;2023-03-23T01:47:16;13.57;63.92
70246;SHT30;57637;49.272;8.590;2023-03-23T01:49:44;13.59;64.24
70246;SHT30;57637;49.272;8.590;2023-03-23T01:52:24;13.52;65.10
70246;SHT30;57637;49.272;8.590;2023-03-23T01:54:54;13.49;65.06
70246;SHT30;57637;49.272;8.590;2023-03-23T01:57:22;13.43;65.28
70246;SHT30;57637;49.272;8.590;2023-03-23T01:59:54;13.40;65.00
70246;SHT30;57637;49.272;8.590;2023-03-23T02:02:23;13.43;64.90
70246;SHT30;57637;49.272;8.590;2023-03-23T02:04:49;13.43;64.86
70246;SHT30;57637;49.272;8.590;2023-03-23T02:07:17;13.43;64.80
70246;SHT30;57637;49.272;8.590;2023-03-23T02:09:45;13.42;65.02
70246;SHT30;57637;49.272;8.590;2023-03-23T02:12:10;13.44;65.13
70246;SHT30;57637;49.272;8.590;2023-03-23T02:14:36;13.49;64.95
70246;SHT30;57637;49.272;8.590;2023-03-23T02:17:14;13.42;64.92
70246;SHT30;57637;49.272;8.590;2023-03-23T02:22:21;13.40;64.91
70246;SHT30;57637;49.272;8.590;2023-03-23T02:36:10;13.33;66.31
70246;SHT30;57637;49.272;8.590;2023-03-23T02:38:40;13.23;66.68
70246;SHT30;57637;49.272;8.590;2023-03-23T02:41:15;13.27;66.04
70246;SHT30;57637;49.272;8.590;2023-03-23T02:43:45;13.24;66.55
70246;SHT30;57637;49.272;8.590;2023-03-23T02:46:12;13.19;66.83
70246;SHT30;57637;49.272;8.590;2023-03-23T02:48:40;13.13;67.67
70246;SHT30;57637;49.272;8.590;2023-03-23T02:51:09;13.01;68.57
70246;SHT30;57637;49.272;8.590;2023-03-23T02:53:37;12.96;68.52
70246;SHT30;57637;49.272;8.590;2023-03-23T02:56:06;12.92;68.85
70246;SHT30;57637;49.272;8.590;2023-03-23T02:58:34;12.89;69.43
70246;SHT30;57637;49.272;8.590;2023-03-23T03:01:10;12.81;70.13
70246;SHT30;57637;49.272;8.590;2023-03-23T03:03:41;12.84;69.66
70246;SHT30;57637;49.272;8.590;2023-03-23T03:06:23;12.75;70.00
70246;SHT30;57637;49.272;8.590;2023-03-23T03:09:09;12.58;70.72
70246;SHT30;57637;49.272;8.590;2023-03-23T03:11:46;12.57;71.20
70246;SHT30;57637;49.272;8.590;2023-03-23T03:14:29;12.60;70.71
70246;SHT30;57637;49.272;8.590;2023-03-23T03:17:00;12.58;70.87
70246;SHT30;57637;49.272;8.590;2023-03-23T03:19:39;12.60;70.72
70246;SHT30;57637;49.272;8.590;2023-03-23T03:22:09;12.64;70.48
70246;SHT30;57637;49.272;8.590;2023-03-23T03:24:36;12.68;69.98
70246;SHT30;57637;49.272;8.590;2023-03-23T03:27:03;12.72;69.75
70246;SHT30;57637;49.272;8.590;2023-03-23T03:29:35;12.74;69.59
70246;SHT30;57637;49.272;8.590;2023-03-23T03:32:06;12.77;69.59
70246;SHT30;57637;49.272;8.590;2023-03-23T03:34:36;12.81;69.05
70246;SHT30;57637;49.272;8.590;2023-03-23T03:37:03;12.78;69.49
70246;SHT30;57637;49.272;8.590;2023-03-23T03:39:30;12.72;70.60
70246;SHT30;57637;49.272;8.590;2023-03-23T03:42:00;12.68;70.80
70246;SHT30;57637;49.272;8.590;2023-03-23T03:44:25;12.62;71.14
70246;SHT30;57637;49.272;8.590;2023-03-23T03:46:51;12.58;71.53
70246;SHT30;57637;49.272;8.590;2023-03-23T03:49:16;12.51;71.49
70246;SHT30;57637;49.272;8.590;2023-03-23T03:51:41;12.48;71.76
70246;SHT30;57637;49.272;8.590;2023-03-23T03:54:07;12.50;71.33
70246;SHT30;57637;49.272;8.590;2023-03-23T03:56:32;12.48;71.25
70246;SHT30;57637;49.272;8.590;2023-03-23T03:59:02;12.47;70.96
70246;SHT30;57637;49.272;8.590;2023-03-23T04:01:28;12.37;71.34
70246;SHT30;57637;49.272;8.590;2023-03-23T04:03:53;12.41;71.43
70246;SHT30;57637;49.272;8.590;2023-03-23T04:06:19;12.37;71.46
70246;SHT30;57637;49.272;8.590;2023-03-23T04:08:45;12.47;71.09
70246;SHT30;57637;49.272;8.590;2023-03-23T04:11:11;12.51;71.10
70246;SHT30;57637;49.272;8.590;2023-03-23T04:13:38;12.55;71.03
70246;SHT30;57637;49.272;8.590;2023-03-23T04:16:05;12.57;71.13
70246;SHT30;57637;49.272;8.590;2023-03-23T04:18:30;12.62;70.48
70246;SHT30;57637;49.272;8.590;2023-03-23T04:20:57;12.68;70.49
70246;SHT30;57637;49.272;8.590;2023-03-23T04:23:24;12.69;70.26
70246;SHT30;57637;49.272;8.590;2023-03-23T04:25:51;12.72;69.90
70246;SHT30;57637;49.272;8.590;2023-03-23T04:28:18;12.77;70.08
70246;SHT30;57637;49.272;8.590;2023-03-23T04:30:44;12.78;69.87
70246;SHT30;57637;49.272;8.590;2023-03-23T04:33:10;12.78;70.35
70246;SHT30;57637;49.272;8.590;2023-03-23T04:35:39;12.74;71.63
70246;SHT30;57637;49.272;8.590;2023-03-23T04:38:05;12.71;72.10
70246;SHT30;57637;49.272;8.590;2023-03-23T04:40:32;12.69;71.96
70246;SHT30;57637;49.272;8.590;2023-03-23T04:43:01;12.69;72.43
70246;SHT30;57637;49.272;8.590;2023-03-23T04:45:30;12.68;72.44
70246;SHT30;57637;49.272;8.590;2023-03-23T04:47:57;12.69;72.58
70246;SHT30;57637;49.272;8.590;2023-03-23T04:50:23;12.71;72.95
70246;SHT30;57637;49.272;8.590;2023-03-23T04:52:55;12.71;72.55
70246;SHT30;57637;49.272;8.590;2023-03-23T04:55:21;12.75;72.07
70246;SHT30;57637;49.272;8.590;2023-03-23T04:57:47;12.80;71.75
70246;SHT30;57637;49.272;8.590;2023-03-23T05:00:13;12.81;71.77
70246;SHT30;57637;49.272;8.590;2023-03-23T05:02:41;12.81;71.43
70246;SHT30;57637;49.272;8.590;2023-03-23T05:05:09;12.89;71.33
70246;SHT30;57637;49.272;8.590;2023-03-23T05:07:40;12.98;71.14
70246;SHT30;57637;49.272;8.590;2023-03-23T05:10:06;13.05;71.42
70246;SHT30;57637;49.272;8.590;2023-03-23T05:12:33;13.13;72.06
70246;SHT30;57637;49.272;8.590;2023-03-23T05:14:59;13.24;72.58
70246;SHT30;57637;49.272;8.590;2023-03-23T05:17:25;13.30;72.66
70246;SHT30;57637;49.272;8.590;2023-03-23T05:19:51;13.30;73.44
70246;SHT30;57637;49.272;8.590;2023-03-23T05:22:17;13.33;73.48
70246;SHT30;57637;49.272;8.590;2023-03-23T05:24:42;13.32;73.96
70246;SHT30;57637;49.272;8.590;2023-03-23T05:27:10;13.30;74.33
70246;SHT30;57637;49.272;8.590;2023-03-23T05:29:36;13.33;73.65
70246;SHT30;57637;49.272;8.590;2023-03-23T05:32:05;13.36;73.59
70246;SHT30;57637;49.272;8.590;2023-03-23T05:34:32;13.36;73.51
70246;SHT30;57637;49.272;8.590;2023-03-23T05:37:01;13.40;72.90
70246;SHT30;57637;49.272;8.590;2023-03-23T05:39:28;13.44;72.90
70246;SHT30;57637;49.272;8.590;2023-03-23T05:41:56;13.46;73.01
70246;SHT30;57637;49.272;8.590;2023-03-23T05:44:21;13.47;72.64
70246;SHT30;57637;49.272;8.590;2023-03-23T05:46:47;13.47;72.83
70246;SHT30;57637;49.272;8.590;2023-03-23T05:49:14;13.52;72.63
70246;SHT30;57637;49.272;8.590;2023-03-23T05:51:41;13.53;72.29
70246;SHT30;57637;49.272;8.590;2023-03-23T05:54:10;13.52;71.90
70246;SHT30;57637;49.272;8.590;2023-03-23T05:56:36;13.49;71.73
70246;SHT30;57637;49.272;8.590;2023-03-23T05:59:02;13.50;71.53
70246;SHT30;57637;49.272;8.590;2023-03-23T06:01:30;13.52;71.50
70246;SHT30;57637;49.272;8.590;2023-03-23T06:03:56;13.53;71.20
70246;SHT30;57637;49.272;8.590;2023-03-23T06:06:26;13.54;71.36
70246;SHT30;57637;49.272;8.590;2023-03-23T06:08:53;13.52;71.31
70246;SHT30;57637;49.272;8.590;2023-03-23T06:11:19;13.53;71.28
70246;SHT30;57637;49.272;8.590;2023-03-23T06:13:44;13.54;71.23
70246;SHT30;57637;49.272;8.590;2023-03-23T06:16:10;13.59;70.99
70246;SHT30;57637;49.272;8.590;2023-03-23T06:18:35;13.66;70.75
70246;SHT30;57637;49.272;8.590;2023-03-23T06:21:06;13.64;70.79
70246;SHT30;57637;49.272;8.590;2023-03-23T06:23:33;13.67;70.71
70246;SHT30;57637;49.272;8.590;2023-03-23T06:26:03;13.70;70.28
70246;SHT30;57637;49.272;8.590;2023-03-23T06:28:31;13.73;70.14
70246;SHT30;57637;49.272;8.590;2023-03-23T06:31:03;13.77;69.90
70246;SHT30;57637;49.272;8.590;2023-03-23T06:33:34;13.77;69.79
70246;SHT30;57637;49.272;8.590;2023-03-23T06:36:00;13.78;69.52
70246;SHT30;57637;49.272;8.590;2023-03-23T06:38:26;13.80;69.77
70246;SHT30;57637;49.272;8.590;2023-03-23T06:40:52;13.84;69.52
70246;SHT30;57637;49.272;8.590;2023-03-23T06:43:18;13.93;68.80
70246;SHT30;57637;49.272;8.590;2023-03-23T06:45:44;13.97;68.44
70246;SHT30;57637;49.272;8.590;2023-03-23T06:48:09;14.00;69.00
70246;SHT30;57637;49.272;8.590;2023-03-23T06:50:34;14.01;68.67
70246;SHT30;57637;49.272;8.590;2023-03-23T06:53:00;14.00;69.01
70246;SHT30;57637;49.272;8.590;2023-03-23T06:55:25;14.03;68.35
70246;SHT30;57637;49.272;8.590;2023-03-23T06:57:51;14.05;68.81
70246;SHT30;57637;49.272;8.590;2023-03-23T07:00:16;14.05;68.84
70246;SHT30;57637;49.272;8.590;2023-03-23T07:02:42;14.01;68.81
70246;SHT30;57637;49.272;8.590;2023-03-23T07:05:08;14.14;68.06
70246;SHT30;57637;49.272;8.590;2023-03-23T07:07:35;14.18;67.91
70246;SHT30;57637;49.272;8.590;2023-03-23T07:10:02;14.25;67.78
70246;SHT30;57637;49.272;8.590;2023-03-23T07:12:29;14.31;67.44
70246;SHT30;57637;49.272;8.590;2023-03-23T07:14:54;14.32;67.22
70246;SHT30;57637;49.272;8.590;2023-03-23T07:17:20;14.39;67.83
70246;SHT30;57637;49.272;8.590;2023-03-23T07:19:46;14.42;68.78
70246;SHT30;57637;49.272;8.590;2023-03-23T07:22:11;14.38;69.24
70246;SHT30;57637;49.272;8.590;2023-03-23T07:24:36;14.32;69.61
70246;SHT30;57637;49.272;8.590;2023-03-23T07:27:02;14.26;70.21
70246;SHT30;57637;49.272;8.590;2023-03-23T07:29:27;14.24;70.90
70246;SHT30;57637;49.272;8.590;2023-03-23T07:31:53;14.22;70.44
70246;SHT30;57637;49.272;8.590;2023-03-23T07:34:19;14.18;69.85
70246;SHT30;57637;49.272;8.590;2023-03-23T07:36:45;14.15;70.37
70246;SHT30;57637;49.272;8.590;2023-03-23T07:39:11;14.14;70.48
70246;SHT30;57637;49.272;8.590;2023-03-23T07:41:37;14.15;70.21
70246;SHT30;57637;49.272;8.590;2023-03-23T07:44:03;14.22;70.02
70246;SHT30;57637;49.272;8.590;2023-03-23T07:46:29;14.26;69.94
70246;SHT30;57637;49.272;8.590;2023-03-23T07:48:54;14.28;69.93
70246;SHT30;57637;49.272;8.590;2023-03-23T07:51:21;14.28;69.94
70246;SHT30;57637;49.272;8.590;2023-03-23T07:53:47;14.35;70.53
70246;SHT30;57637;49.272;8.590;2023-03-23T07:56:13;14.38;70.85
70246;SHT30;57637;49.272;8.590;2023-03-23T07:58:40;14.44;70.53
70246;SHT30;57637;49.272;8.590;2023-03-23T08:01:06;14.54;70.57
70246;SHT30;57637;49.272;8.590;2023-03-23T08:03:33;14.59;70.71
70246;SHT30;57637;49.272;8.590;2023-03-23T08:05:59;14.62;70.56
70246;SHT30;57637;49.272;8.590;2023-03-23T08:08:25;14.73;70.47
70246;SHT30;57637;49.272;8.590;2023-03-23T08:10:50;14.75;70.50
70246;SHT30;57637;49.272;8.590;2023-03-23T08:13:16;14.80;70.57
70246;SHT30;57637;49.272;8.590;2023-03-23T08:15:44;14.82;70.50
70246;SHT30;57637;49.272;8.590;2023-03-23T08:18:10;14.92;70.14
70246;SHT30;57637;49.272;8.590;2023-03-23T08:20:35;14.93;69.99
70246;SHT30;57637;49.272;8.590;2023-03-23T08:23:01;14.95;70.10
70246;SHT30;57637;49.272;8.590;2023-03-23T08:25:28;14.82;69.93
70246;SHT30;57637;49.272;8.590;2023-03-23T08:27:56;14.85;69.99
70246;SHT30;57637;49.272;8.590;2023-03-23T08:30:22;14.79;70.11
70246;SHT30;57637;49.272;8.590;2023-03-23T08:32:48;14.83;70.55
70246;SHT30;57637;49.272;8.590;2023-03-23T08:35:15;15.06;70.04
70246;SHT30;57637;49.272;8.590;2023-03-23T08:37:41;15.31;69.19
70246;SHT30;57637;49.272;8.590;2023-03-23T08:40:08;15.41;68.56
70246;SHT30;57637;49.272;8.590;2023-03-23T08:42:38;15.70;68.19
70246;SHT30;57637;49.272;8.590;2023-03-23T08:45:04;15.78;68.26
70246;SHT30;57637;49.272;8.590;2023-03-23T08:47:32;15.75;68.44
70246;SHT30;57637;49.272;8.590;2023-03-23T08:49:58;15.68;68.04
70246;SHT30;57637;49.272;8.590;2023-03-23T08:52:23;15.68;68.10
70246;SHT30;57637;49.272;8.590;2023-03-23T08:54:49;15.92;67.55
70246;SHT30;57637;49.272;8.590;2023-03-23T08:57:15;16.00;66.85
70246;SHT30;57637;49.272;8.590;2023-03-23T08:59:41;16.11;66.86
70246;SHT30;57637;49.272;8.590;2023-03-23T09:02:08;16.26;66.61
70246;SHT30;57637;49.272;8.590;2023-03-23T09:04:35;16.23;66.99
70246;SHT30;57637;49.272;8.590;2023-03-23T09:07:01;16.08;66.66
70246;SHT30;57637;49.272;8.590;2023-03-23T09:09:27;16.11;67.01
70246;SHT30;57637;49.272;8.590;2023-03-23T09:11:53;16.00;67.68
70246;SHT30;57637;49.272;8.590;2023-03-23T09:14:18;16.15;67.43
70246;SHT30;57637;49.272;8.590;2023-03-23T09:16:44;16.22;67.63
70246;SHT30;57637;49.272;8.590;2023-03-23T09:19:11;16.13;68.34
70246;SHT30;57637;49.272;8.590;2023-03-23T09:21:37;16.06;67.91
70246;SHT30;57637;49.272;8.590;2023-03-23T09:24:03;16.06;68.84
70246;SHT30;57637;49.272;8.590;2023-03-23T09:26:30;16.16;69.44
70246;SHT30;57637;49.272;8.590;2023-03-23T09:28:56;16.13;68.95
70246;SHT30;57637;49.272;8.590;2023-03-23T09:31:23;16.13;68.70
70246;SHT30;57637;49.272;8.590;2023-03-23T09:33:51;16.12;68.64
70246;SHT30;57637;49.272;8.590;2023-03-23T09:36:21;16.09;68.36
70246;SHT30;57637;49.272;8.590;2023-03-23T09:38:50;16.13;68.36
70246;SHT30;57637;49.272;8.590;2023-03-23T09:44:09;16.02;67.95
70246;SHT30;57637;49.272;8.590;2023-03-23T09:49:59;16.48;67.37
70246;SHT30;57637;49.272;8.590;2023-03-23T09:52:37;16.52;66.85
70246;SHT30;57637;49.272;8.590;2023-03-23T09:55:17;16.30;66.47
70246;SHT30;57637;49.272;8.590;2023-03-23T10:00:37;15.87;67.56
70246;SHT30;57637;49.272;8.590;2023-03-23T10:03:10;15.88;67.60
70246;SHT30;57637;49.272;8.590;2023-03-23T10:05:44;16.30;67.23
70246;SHT30;57637;49.272;8.590;2023-03-23T10:08:19;16.51;66.65
70246;SHT30;57637;49.272;8.590;2023-03-23T10:15:58;16.94;65.66
70246;SHT30;57637;49.272;8.590;2023-03-23T10:21:01;17.31;64.32
70246;SHT30;57637;49.272;8.590;2023-03-23T10:26:56;17.31;64.80
70246;SHT30;57637;49.272;8.590;2023-03-23T10:29:22;17.17;65.03
70246;SHT30;57637;49.272;8.590;2023-03-23T10:31:57;17.00;65.20
70246;SHT30;57637;49.272;8.590;2023-03-23T10:34:35;17.11;65.38
70246;SHT30;57637;49.272;8.590;2023-03-23T10:37:11;17.18;66.02
70246;SHT30;57637;49.272;8.590;2023-03-23T10:39:49;16.95;67.01
70246;SHT30;57637;49.272;8.590;2023-03-23T10:42:31;16.87;67.41
70246;SHT30;57637;49.272;8.590;2023-03-23T10:50:50;17.17;66.54
70246;SHT30;57637;49.272;8.590;2023-03-23T10:53:21;17.21;66.46
70246;SHT30;57637;49.272;8.590;2023-03-23T10:55:53;17.27;66.87
70246;SHT30;57637;49.272;8.590;2023-03-23T10:58:26;17.04;67.78
70246;SHT30;57637;49.272;8.590;2023-03-23T11:00:54;16.95;68.58
70246;SHT30;57637;49.272;8.590;2023-03-23T11:03:22;16.86;69.40
70246;SHT30;57637;49.272;8.590;2023-03-23T11:05:59;16.86;69.46
70246;SHT30;57637;49.272;8.590;2023-03-23T11:08:30;16.86;69.67
70246;SHT30;57637;49.272;8.590;2023-03-23T11:13:38;16.41;70.43
70246;SHT30;57637;49.272;8.590;2023-03-23T11:16:08;16.05;71.62
70246;SHT30;57637;49.272;8.590;2023-03-23T11:18:38;16.02;72.04
70246;SHT30;57637;49.272;8.590;2023-03-23T11:21:05;15.97;72.62
70246;SHT30;57637;49.272;8.590;2023-03-23T11:23:37;15.92;72.95
70246;SHT30;57637;49.272;8.590;2023-03-23T11:26:14;15.82;73.54
70246;SHT30;57637;49.272;8.590;2023-03-23T11:31:11;16.11;72.93
70246;SHT30;57637;49.272;8.590;2023-03-23T11:33:39;16.23;72.47
70246;SHT30;57637;49.272;8.590;2023-03-23T11:36:17;16.23;71.96
70246;SHT30;57637;49.272;8.590;2023-03-23T11:38:43;16.29;71.64
70246;SHT30;57637;49.272;8.590;2023-03-23T11:41:16;16.16;71.54
70246;SHT30;57637;49.272;8.590;2023-03-23T11:43:44;16.18;70.93
70246;SHT30;57637;49.272;8.590;2023-03-23T11:46:20;16.21;71.33
70246;SHT30;57637;49.272;8.590;2023-03-23T11:49:02;16.15;71.17
70246;SHT30;57637;49.272;8.590;2023-03-23T11:54:21;16.18;70.82
70246;SHT30;57637;49.272;8.590;2023-03-23T11:56:54;16.15;70.85
70246;SHT30;57637;49.272;8.590;2023-03-23T11:59:31;16.05;70.42
70246;SHT30;57637;49.272;8.590;2023-03-23T12:26:19;16.06;68.75
70246;SHT30;57637;49.272;8.590;2023-03-23T12:37:34;15.98;68.94
70246;SHT30;57637;49.272;8.590;2023-03-23T12:48:10;15.78;69.19
70246;SHT30;57637;49.272;8.590;2023-03-23T12:56:24;15.84;69.15
70246;SHT30;57637;49.272;8.590;2023-03-23T12:59:00;15.78;68.86
70246;SHT30;57637;49.272;8.590;2023-03-23T13:01:32;15.77;69.23
70246;SHT30;57637;49.272;8.590;2023-03-23T13:06:38;15.65;68.84
70246;SHT30;57637;49.272;8.590;2023-03-23T13:11:54;15.51;68.93
70246;SHT30;57637;49.272;8.590;2023-03-23T13:26:06;15.62;68.60
70246;SHT30;57637;49.272;8.590;2023-03-23T13:28:20;15.55;68.19
70246;SHT30;57637;49.272;8.590;2023-03-23T13:33:31;15.50;68.26
70246;SHT30;57637;49.272;8.590;2023-03-23T13:36:09;15.44;68.58
70246;SHT30;57637;49.272;8.590;2023-03-23T13:38:36;15.44;68.02
70246;SHT30;57637;49.272;8.590;2023-03-23T13:41:07;15.40;67.78
70246;SHT30;57637;49.272;8.590;2023-03-23T13:43:35;15.40;67.83
70246;SHT30;57637;49.272;8.590;2023-03-23T13:46:06;15.33;68.14
70246;SHT30;57637;49.272;8.590;2023-03-23T13:48:39;15.34;67.97
70246;SHT30;57637;49.272;8.590;2023-03-23T13:54:19;15.34;67.70
70246;SHT30;57637;49.272;8.590;2023-03-23T13:56:54;15.30;67.72
70246;SHT30;57637;49.272;8.590;2023-03-23T14:01:51;15.22;68.36
70246;SHT30;57637;49.272;8.590;2023-03-23T14:04:22;15.17;67.99
70246;SHT30;57637;49.272;8.590;2023-03-23T14:06:56;15.04;67.85
70246;SHT30;57637;49.272;8.590;2023-03-23T14:09:25;15.06;68.29
70246;SHT30;57637;49.272;8.590;2023-03-23T14:12:27;15.04;68.84
70246;SHT30;57637;49.272;8.590;2023-03-23T14:14:51;15.04;68.66
70246;SHT30;57637;49.272;8.590;2023-03-23T14:17:27;15.04;68.69
70246;SHT30;57637;49.272;8.590;2023-03-23T14:19:55;15.04;68.71
70246;SHT30;57637;49.272;8.590;2023-03-23T14:22:33;15.02;68.75
70246;SHT30;57637;49.272;8.590;2023-03-23T14:25:16;15.07;68.77
70246;SHT30;57637;49.272;8.590;2023-03-23T14:27:43;15.04;68.77
70246;SHT30;57637;49.272;8.590;2023-03-23T14:32:50;15.04;69.11
70246;SHT30;57637;49.272;8.590;2023-03-23T14:37:45;15.07;68.96
70246;SHT30;57637;49.272;8.590;2023-03-23T14:40:12;15.04;69.15
70246;SHT30;57637;49.272;8.590;2023-03-23T14:42:41;15.02;69.45
70246;SHT30;57637;49.272;8.590;2023-03-23T14:45:07;15.06;69.46
70246;SHT30;57637;49.272;8.590;2023-03-23T14:47:42;15.07;69.20
70246;SHT30;57637;49.272;8.590;2023-03-23T14:55:51;15.03;69.47
70246;SHT30;57637;49.272;8.590;2023-03-23T14:58:19;14.99;69.70
70246;SHT30;57637;49.272;8.590;2023-03-23T15:00:48;15.00;69.54
70246;SHT30;57637;49.272;8.590;2023-03-23T15:03:41;15.02;69.66
70246;SHT30;57637;49.272;8.590;2023-03-23T15:06:19;14.99;69.25
70246;SHT30;57637;49.272;8.590;2023-03-23T15:08:48;14.99;68.69
70246;SHT30;57637;49.272;8.590;2023-03-23T15:13:43;15.10;68.88
70246;SHT30;57637;49.272;8.590;2023-03-23T15:16:14;15.09;68.95
70246;SHT30;57637;49.272;8.590;2023-03-23T15:18:51;15.10;68.98
70246;SHT30;57637;49.272;8.590;2023-03-23T15:21:29;15.09;68.32
70246;SHT30;57637;49.272;8.590;2023-03-23T15:23:56;15.10;68.79
70246;SHT30;57637;49.272;8.590;2023-03-23T15:29:08;15.36;68.16
70246;SHT30;57637;49.272;8.590;2023-03-23T15:31:40;15.43;68.02
70246;SHT30;57637;49.272;8.590;2023-03-23T15:34:12;15.48;67.66
70246;SHT30;57637;49.272;8.590;2023-03-23T15:37:05;15.47;67.53
70246;SHT30;57637;49.272;8.590;2023-03-23T15:39:42;15.54;67.15
70246;SHT30;57637;49.272;8.590;2023-03-23T15:42:19;15.50;67.24
70246;SHT30;57637;49.272;8.590;2023-03-23T15:44:55;15.51;67.19
70246;SHT30;57637;49.272;8.590;2023-03-23T15:47:36;15.46;67.57
70246;SHT30;57637;49.272;8.590;2023-03-23T15:52:51;15.34;68.18
70246;SHT30;57637;49.272;8.590;2023-03-23T15:55:27;15.26;68.69
70246;SHT30;57637;49.272;8.590;2023-03-23T15:57:54;15.23;68.92
70246;SHT30;57637;49.272;8.590;2023-03-23T16:00:22;15.20;69.42
70246;SHT30;57637;49.272;8.590;2023-03-23T16:02:52;15.16;69.14
70246;SHT30;57637;49.272;8.590;2023-03-23T16:05:21;15.03;69.42
70246;SHT30;57637;49.272;8.590;2023-03-23T16:07:47;15.06;69.48
70246;SHT30;57637;49.272;8.590;2023-03-23T16:10:15;15.19;69.31
70246;SHT30;57637;49.272;8.590;2023-03-23T16:12:43;15.33;68.85
70246;SHT30;57637;49.272;8.590;2023-03-23T16:15:09;15.31;68.93
70246;SHT30;57637;49.272;8.590;2023-03-23T16:17:35;15.33;69.42
70246;SHT30;57637;49.272;8.590;2023-03-23T16:20:00;15.30;69.70
70246;SHT30;57637;49.272;8.590;2023-03-23T16:22:27;15.24;69.97
70246;SHT30;57637;49.272;8.590;2023-03-23T16:24:52;15.20;70.42
70246;SHT30;57637;49.272;8.590;2023-03-23T16:27:18;15.30;70.05
70246;SHT30;57637;49.272;8.590;2023-03-23T16:29:45;15.34;69.81
70246;SHT30;57637;49.272;8.590;2023-03-23T16:32:10;15.36;70.04
70246;SHT30;57637;49.272;8.590;2023-03-23T16:34:36;15.26;70.43
70246;SHT30;57637;49.272;8.590;2023-03-23T16:37:02;15.16;70.47
70246;SHT30;57637;49.272;8.590;2023-03-23T16:39:28;15.10;71.00
70246;SHT30;57637;49.272;8.590;2023-03-23T16:41:53;15.19;71.00
70246;SHT30;57637;49.272;8.590;2023-03-23T16:44:19;15.29;70.90
70246;SHT30;57637;49.272;8.590;2023-03-23T16:46:44;15.27;71.11
70246;SHT30;57637;49.272;8.590;2023-03-23T16:49:09;15.20;71.44
70246;SHT30;57637;49.272;8.590;2023-03-23T16:51:35;15.10;71.88
70246;SHT30;57637;49.272;8.590;2023-03-23T16:54:00;15.11;71.86
70246;SHT30;57637;49.272;8.590;2023-03-23T16:56:26;15.04;72.44
70246;SHT30;57637;49.272;8.590;2023-03-23T16:58:51;15.04;72.34
70246;SHT30;57637;49.272;8.590;2023-03-23T17:01:16;14.97;72.90
70246;SHT30;57637;49.272;8.590;2023-03-23T17:03:42;15.00;72.83
70246;SHT30;57637;49.272;8.590;2023-03-23T17:06:07;15.00;72.98
70246;SHT30;57637;49.272;8.590;2023-03-23T17:08:33;14.95;73.29
70246;SHT30;57637;49.272;8.590;2023-03-23T17:10:59;14.97;73.43
70246;SHT30;57637;49.272;8.590;2023-03-23T17:13:24;14.95;73.54
70246;SHT30;57637;49.272;8.590;2023-03-23T17:15:52;14.93;73.60
70246;SHT30;57637;49.272;8.590;2023-03-23T17:18:22;14.86;73.96
70246;SHT30;57637;49.272;8.590;2023-03-23T17:20:49;14.86;73.95
70246;SHT30;57637;49.272;8.590;2023-03-23T17:23:16;14.79;74.15
70246;SHT30;57637;49.272;8.590;2023-03-23T17:25:43;14.75;74.40
70246;SHT30;57637;49.272;8.590;2023-03-23T17:28:10;14.72;74.59
70246;SHT30;57637;49.272;8.590;2023-03-23T17:30:38;14.71;74.62
70246;SHT30;57637;49.272;8.590;2023-03-23T17:33:05;14.71;74.80
70246;SHT30;57637;49.272;8.590;2023-03-23T17:35:30;14.69;74.81
70246;SHT30;57637;49.272;8.590;2023-03-23T17:37:55;14.68;74.99
70246;SHT30;57637;49.272;8.590;2023-03-23T17:40:22;14.66;74.92
70246;SHT30;57637;49.272;8.590;2023-03-23T17:42:47;14.66;74.92
70246;SHT30;57637;49.272;8.590;2023-03-23T17:45:13;14.66;74.94
70246;SHT30;57637;49.272;8.590;2023-03-23T17:47:38;14.65;75.01
70246;SHT30;57637;49.272;8.590;2023-03-23T17:50:04;14.64;75.20
70246;SHT30;57637;49.272;8.590;2023-03-23T17:52:31;14.61;75.29
70246;SHT30;57637;49.272;8.590;2023-03-23T17:54:56;14.59;75.15
70246;SHT30;57637;49.272;8.590;2023-03-23T17:57:22;14.54;75.37
70246;SHT30;57637;49.272;8.590;2023-03-23T17:59:48;14.56;75.35